createdAt,value
2023-01-29T00:01:44.563Z,93.39
2023-01-29T00:04:46.186Z,92.96
2023-01-29T00:07:48.313Z,93.76
2023-01-29T00:10:49.909Z,93.52
2023-01-29T00:13:52.685Z,93.64
2023-01-29T00:16:54.323Z,93.74
2023-01-29T00:19:55.918Z,93.12
2023-01-29T00:22:57.575Z,93.73
2023-01-29T00:26:02.180Z,92.74
2023-01-29T00:29:05.918Z,93.40
2023-01-29T00:32:07.662Z,93.71
2023-01-29T00:35:12.177Z,93.64
2023-01-29T00:38:14.751Z,93.35
2023-01-29T00:41:34.901Z,93.90
2023-01-29T00:44:55.253Z,93.65
2023-01-29T00:47:56.895Z,93.91
2023-01-29T00:50:58.537Z,93.89
2023-01-29T00:54:00.713Z,93.27
2023-01-29T00:57:03.578Z,94.05
2023-01-29T01:00:07.617Z,93.71
2023-01-29T01:03:10.380Z,94.79
2023-01-29T01:06:12.016Z,95.50
2023-01-29T01:09:32.309Z,95.20
2023-01-29T01:12:36.200Z,95.12
2023-01-29T01:15:39.558Z,94.42
2023-01-29T01:18:42.060Z,94.24
2023-01-29T01:21:45.508Z,94.63
2023-01-29T01:24:47.216Z,94.67
2023-01-29T01:27:53.369Z,95.18
2023-01-29T01:30:55.081Z,94.22
2023-01-29T01:33:56.772Z,94.01
2023-01-29T01:36:58.478Z,93.89
2023-01-29T01:40:00.190Z,92.80
2023-01-29T01:43:02.488Z,92.38
2023-01-29T01:46:04.400Z,92.79
2023-01-29T01:49:09.919Z,93.03
2023-01-29T01:52:16.488Z,93.27
2023-01-29T01:55:23.751Z,92.70
2023-01-29T01:58:33.904Z,92.60
2023-01-29T02:01:36.004Z,92.44
2023-01-29T02:05:06.580Z,92.64
2023-01-29T02:08:27.934Z,92.70
2023-01-29T02:11:30.577Z,91.87
2023-01-29T02:14:34.625Z,91.74
2023-01-29T02:17:36.556Z,93.11
2023-01-29T02:20:41.348Z,92.54
2023-01-29T02:24:15.633Z,92.52
2023-01-29T02:27:25.764Z,92.11
2023-01-29T02:30:40.367Z,91.53
2023-01-29T02:33:55.905Z,91.45
2023-01-29T02:37:04.584Z,91.81
2023-01-29T02:40:38.727Z,90.97
2023-01-29T02:43:55.721Z,91.21
2023-01-29T02:47:20.431Z,91.11
2023-01-29T02:50:46.872Z,92.15
2023-01-29T02:53:59.894Z,92.42
2023-01-29T02:57:15.033Z,92.29
2023-01-29T03:00:27.812Z,92.05
2023-01-29T03:03:36.638Z,92.17
2023-01-29T03:06:43.838Z,92.29
2023-01-29T03:09:51.497Z,91.82
2023-01-29T03:13:13.451Z,92.70
2023-01-29T03:16:41.673Z,93.07
2023-01-29T03:19:46.863Z,93.15
2023-01-29T03:23:04.978Z,92.03
2023-01-29T03:26:25.440Z,91.86
2023-01-29T03:29:50.261Z,91.98
2023-01-29T03:32:54.124Z,91.54
2023-01-29T03:36:02.559Z,91.63
2023-01-29T03:39:09.518Z,91.26
2023-01-29T03:42:11.329Z,91.84
2023-01-29T03:45:50.139Z,92.09
2023-01-29T03:48:59.452Z,92.08
2023-01-29T03:52:13.998Z,91.26
2023-01-29T03:55:20.466Z,92.60
2023-01-29T03:58:35.909Z,91.85
2023-01-29T04:01:47.531Z,92.35
2023-01-29T04:04:53.164Z,91.80
2023-01-29T04:08:05.071Z,92.28
2023-01-29T04:11:14.329Z,92.40
2023-01-29T04:14:17.511Z,91.97
2023-01-29T04:17:33.722Z,91.61
2023-01-29T04:20:43.527Z,92.33
2023-01-29T04:23:45.244Z,91.68
2023-01-29T04:27:20.906Z,92.03
2023-01-29T04:30:34.836Z,92.52
2023-01-29T04:33:48.020Z,92.43
2023-01-29T04:37:20.765Z,92.03
2023-01-29T04:40:47.523Z,92.00
2023-01-29T04:44:05.015Z,92.21
2023-01-29T04:47:39.743Z,92.60
2023-01-29T04:51:01.919Z,92.17
2023-01-29T04:54:03.499Z,91.82
2023-01-29T04:57:27.798Z,91.79
2023-01-29T05:00:43.112Z,92.10
2023-01-29T05:03:49.969Z,91.95
2023-01-29T05:06:52.568Z,92.66
2023-01-29T05:09:55.382Z,92.97
2023-01-29T05:13:02.079Z,92.93
2023-01-29T05:16:14.649Z,93.81
2023-01-29T05:19:17.268Z,93.60
2023-01-29T05:22:22.698Z,93.33
2023-01-29T05:25:30.137Z,92.92
2023-01-29T05:28:31.984Z,93.54
2023-01-29T05:31:33.735Z,94.38
2023-01-29T05:34:35.451Z,94.16
2023-01-29T05:37:37.029Z,94.27
2023-01-29T05:40:38.926Z,94.10
2023-01-29T05:43:40.519Z,94.22
2023-01-29T05:46:44.086Z,94.31
2023-01-29T05:49:45.743Z,93.82
2023-01-29T05:52:47.368Z,94.17
2023-01-29T05:55:49.546Z,93.68
2023-01-29T05:58:51.356Z,93.08
2023-01-29T06:01:52.973Z,93.56
2023-01-29T06:04:54.581Z,93.60
2023-01-29T06:07:56.308Z,93.71
2023-01-29T06:10:57.921Z,94.69
2023-01-29T06:13:59.567Z,95.03
2023-01-29T06:17:01.237Z,95.10
2023-01-29T06:20:02.848Z,94.26
2023-01-29T06:23:04.490Z,94.35
2023-01-29T06:26:08.695Z,94.57
2023-01-29T06:29:10.422Z,94.07
2023-01-29T06:32:12.093Z,95.00
2023-01-29T06:35:13.788Z,95.89
2023-01-29T06:38:15.430Z,95.16
2023-01-29T06:41:18.625Z,95.66
2023-01-29T06:44:20.343Z,94.82
2023-01-29T06:47:22.416Z,94.58
2023-01-29T06:50:24.036Z,95.54
2023-01-29T06:53:25.891Z,94.96
2023-01-29T06:56:27.563Z,94.79
2023-01-29T06:59:29.265Z,94.29
2023-01-29T07:02:30.935Z,93.90
2023-01-29T07:05:32.652Z,94.00
2023-01-29T07:08:38.848Z,94.11
2023-01-29T07:11:40.724Z,94.11
2023-01-29T07:14:42.299Z,94.15
2023-01-29T07:17:43.884Z,93.53
2023-01-29T07:20:45.509Z,94.17
2023-01-29T07:23:47.227Z,94.16
2023-01-29T07:26:48.787Z,94.33
2023-01-29T07:29:50.554Z,93.99
2023-01-29T07:32:52.169Z,93.33
2023-01-29T07:35:54.053Z,93.10
2023-01-29T07:38:55.964Z,93.13
2023-01-29T07:41:57.728Z,93.26
2023-01-29T07:45:01.971Z,93.41
2023-01-29T07:48:05.190Z,94.33
2023-01-29T07:51:07.192Z,94.55
2023-01-29T07:54:08.823Z,94.55
2023-01-29T07:57:10.503Z,94.70
2023-01-29T08:00:14.669Z,93.78
2023-01-29T08:03:20.022Z,93.79
2023-01-29T08:06:21.675Z,93.65
2023-01-29T08:09:23.334Z,93.35
2023-01-29T08:12:24.964Z,92.22
2023-01-29T08:15:27.245Z,93.47
2023-01-29T08:18:28.927Z,93.13
2023-01-29T08:21:30.551Z,92.64
2023-01-29T08:24:47.432Z,92.88
2023-01-29T08:27:54.051Z,91.98
2023-01-29T08:30:55.743Z,92.60
2023-01-29T08:33:58.853Z,93.22
2023-01-29T08:37:00.400Z,92.96
2023-01-29T08:40:05.065Z,92.35
2023-01-29T08:43:09.147Z,92.09
2023-01-29T08:46:11.112Z,91.60
2023-01-29T08:49:12.857Z,91.26
2023-01-29T08:52:14.430Z,91.89
2023-01-29T08:55:16.382Z,91.64
2023-01-29T08:58:18.538Z,90.97
2023-01-29T09:01:20.240Z,91.00
2023-01-29T09:04:22.384Z,91.40
2023-01-29T09:07:24.103Z,91.23
2023-01-29T09:10:26.203Z,89.95
2023-01-29T09:13:27.831Z,90.21
2023-01-29T09:16:29.413Z,91.36
2023-01-29T09:19:31.054Z,90.86
2023-01-29T09:22:32.639Z,90.22
2023-01-29T09:25:34.577Z,89.66
2023-01-29T09:28:36.163Z,88.37
2023-01-29T09:31:37.927Z,88.12
2023-01-29T09:34:40.190Z,87.76
2023-01-29T09:37:41.875Z,88.23
2023-01-29T09:41:06.191Z,87.14
2023-01-29T09:44:18.026Z,85.36
2023-01-29T09:47:21.298Z,85.89
2023-01-29T09:50:43.147Z,86.71
2023-01-29T09:53:58.184Z,86.47
2023-01-29T09:57:00.722Z,86.13
2023-01-29T10:00:05.453Z,86.51
2023-01-29T10:03:41.811Z,86.93
2023-01-29T10:06:43.395Z,84.84
2023-01-29T10:10:03.829Z,85.10
2023-01-29T10:13:14.548Z,84.08
2023-01-29T10:16:35.373Z,83.03
2023-01-29T10:20:10.257Z,82.80
2023-01-29T10:23:29.918Z,82.11
2023-01-29T10:26:34.234Z,82.08
2023-01-29T10:29:36.134Z,83.32
2023-01-29T10:32:38.276Z,82.45
2023-01-29T10:35:43.777Z,81.41
2023-01-29T10:38:51.059Z,81.38
2023-01-29T10:42:19.717Z,81.00
2023-01-29T10:45:46.049Z,78.23
2023-01-29T10:49:00.571Z,78.95
2023-01-29T10:52:33.112Z,78.31
2023-01-29T10:55:54.628Z,78.27
2023-01-29T10:59:09.225Z,80.46
2023-01-29T11:02:19.805Z,79.87
2023-01-29T11:05:35.505Z,78.43
2023-01-29T11:09:00.120Z,77.65
2023-01-29T11:12:16.927Z,78.18
2023-01-29T11:15:24.653Z,77.37
2023-01-29T11:18:26.289Z,78.74
2023-01-29T11:21:29.742Z,77.70
2023-01-29T11:24:31.409Z,76.10
2023-01-29T11:27:35.486Z,77.53
2023-01-29T11:30:41.809Z,77.41
2023-01-29T11:33:44.776Z,76.26
2023-01-29T11:36:46.991Z,75.99
2023-01-29T11:39:48.666Z,76.63
2023-01-29T11:42:52.923Z,75.42
2023-01-29T11:45:58.668Z,74.93
2023-01-29T11:49:14.034Z,74.60
2023-01-29T11:52:23.883Z,74.35
2023-01-29T11:55:44.358Z,73.74
2023-01-29T11:58:55.394Z,73.34
2023-01-29T12:02:06.842Z,72.81
2023-01-29T12:05:17.855Z,72.82
2023-01-29T12:08:21.651Z,70.85
2023-01-29T12:11:30.737Z,71.60
2023-01-29T12:14:34.315Z,70.42
2023-01-29T12:17:39.550Z,72.09
2023-01-29T12:20:56.134Z,70.77
2023-01-29T12:24:36.695Z,70.10
2023-01-29T12:28:04.169Z,70.72
2023-01-29T12:31:19.344Z,69.37
2023-01-29T12:34:27.375Z,70.05
2023-01-29T12:37:56.673Z,70.84
2023-01-29T12:41:01.181Z,68.26
2023-01-29T12:44:10.886Z,68.14
2023-01-29T12:47:23.309Z,68.50
2023-01-29T12:50:32.500Z,67.12
2023-01-29T12:54:04.708Z,66.55
2023-01-29T12:57:20.648Z,65.04
2023-01-29T13:00:25.970Z,65.60
2023-01-29T13:03:45.523Z,64.27
2023-01-29T13:06:54.271Z,66.44
2023-01-29T13:10:10.631Z,67.84
2023-01-29T13:13:22.103Z,67.59
2023-01-29T13:16:28.024Z,69.02
2023-01-29T13:19:35.137Z,69.39
2023-01-29T13:22:40.527Z,68.99
2023-01-29T13:25:43.137Z,68.65
2023-01-29T13:28:45.255Z,70.83
2023-01-29T13:31:49.717Z,69.06
2023-01-29T13:34:55.427Z,68.80
2023-01-29T13:37:57.119Z,66.08
2023-01-29T13:41:08.749Z,65.54
2023-01-29T13:44:29.610Z,66.58
2023-01-29T13:47:37.940Z,68.10
2023-01-29T13:50:42.906Z,67.31
2023-01-29T13:53:55.259Z,68.08
2023-01-29T13:57:01.637Z,67.67
2023-01-29T14:00:31.033Z,68.40
2023-01-29T14:04:02.205Z,70.06
2023-01-29T14:07:43.559Z,68.86
2023-01-29T14:10:45.110Z,68.04
2023-01-29T14:13:49.302Z,68.41
2023-01-29T14:16:50.968Z,68.96
2023-01-29T14:20:02.190Z,70.36
2023-01-29T14:23:05.002Z,70.40
2023-01-29T14:26:18.417Z,69.58
2023-01-29T14:29:39.738Z,69.20
2023-01-29T14:32:41.549Z,70.18
2023-01-29T14:35:51.112Z,70.35
2023-01-29T14:38:54.434Z,71.67
2023-01-29T14:41:57.499Z,70.11
2023-01-29T14:45:11.504Z,70.22
2023-01-29T14:48:13.111Z,69.97
2023-01-29T14:51:17.875Z,69.50
2023-01-29T14:54:30.228Z,69.03
2023-01-29T14:57:32.248Z,68.91
2023-01-29T15:00:39.629Z,70.09
2023-01-29T15:03:49.797Z,69.13
2023-01-29T15:07:11.619Z,70.40
2023-01-29T15:10:23.380Z,69.07
2023-01-29T15:13:36.249Z,71.17
2023-01-29T15:16:51.632Z,71.83
2023-01-29T15:19:53.291Z,72.20
2023-01-29T15:22:54.981Z,71.80
2023-01-29T15:26:01.662Z,71.22
2023-01-29T15:29:05.877Z,71.12
2023-01-29T15:32:08.229Z,71.22
2023-01-29T15:35:37.124Z,70.85
2023-01-29T15:38:38.775Z,71.26
2023-01-29T15:41:40.425Z,70.87
2023-01-29T15:44:46.596Z,71.95
2023-01-29T15:47:48.773Z,73.06
2023-01-29T15:50:54.667Z,73.21
2023-01-29T15:54:04.883Z,74.79
2023-01-29T15:57:06.795Z,74.33
2023-01-29T16:00:22.227Z,76.22
2023-01-29T16:03:26.402Z,77.57
2023-01-29T16:06:38.021Z,78.78
2023-01-29T16:09:39.943Z,79.27
2023-01-29T16:12:41.828Z,79.46
2023-01-29T16:16:06.380Z,81.44
2023-01-29T16:19:22.020Z,81.34
2023-01-29T16:22:25.146Z,81.89
2023-01-29T16:25:30.132Z,83.22
2023-01-29T16:28:31.932Z,83.63
2023-01-29T16:31:36.145Z,84.93
2023-01-29T16:34:44.153Z,84.35
2023-01-29T16:37:50.868Z,85.36
2023-01-29T16:41:11.443Z,85.88
2023-01-29T16:44:15.753Z,86.68
2023-01-29T16:47:28.241Z,86.96
2023-01-29T16:50:46.166Z,87.18
2023-01-29T16:54:02.240Z,86.90
2023-01-29T16:57:03.845Z,87.19
2023-01-29T17:00:29.459Z,87.57
2023-01-29T17:03:33.782Z,87.83
2023-01-29T17:06:36.236Z,87.77
2023-01-29T17:09:38.305Z,88.43
2023-01-29T17:12:39.892Z,88.72
2023-01-29T17:15:43.041Z,88.08
2023-01-29T17:18:44.691Z,89.01
2023-01-29T17:21:47.355Z,89.22
2023-01-29T17:24:51.499Z,89.12
2023-01-29T17:27:53.345Z,88.50
2023-01-29T17:31:05.818Z,89.39
2023-01-29T17:34:14.135Z,89.03
2023-01-29T17:37:16.366Z,89.35
2023-01-29T17:40:41.138Z,89.56
2023-01-29T17:43:44.205Z,89.38
2023-01-29T17:46:47.359Z,89.89
2023-01-29T17:49:49.182Z,88.99
2023-01-29T17:52:50.880Z,89.08
2023-01-29T17:55:52.436Z,89.77
2023-01-29T17:58:54.028Z,89.64
2023-01-29T18:01:55.868Z,88.59
2023-01-29T18:04:57.451Z,88.91
2023-01-29T18:07:59.097Z,88.89
2023-01-29T18:11:01.189Z,89.13
2023-01-29T18:14:14.184Z,89.76
2023-01-29T18:17:22.199Z,89.43
2023-01-29T18:20:25.753Z,89.60
2023-01-29T18:23:29.505Z,90.48
2023-01-29T18:26:31.164Z,90.38
2023-01-29T18:29:32.809Z,90.55
2023-01-29T18:32:34.640Z,89.40
2023-01-29T18:35:36.278Z,89.58
2023-01-29T18:38:37.833Z,89.37
2023-01-29T18:41:39.446Z,88.33
2023-01-29T18:44:41.013Z,88.87
2023-01-29T18:47:42.606Z,87.71
2023-01-29T18:50:44.228Z,89.08
2023-01-29T18:53:49.980Z,88.50
2023-01-29T18:57:12.962Z,88.52
2023-01-29T19:00:13.877Z,87.42
2023-01-29T19:03:15.552Z,86.91
2023-01-29T19:06:17.170Z,87.77
2023-01-29T19:09:18.842Z,87.95
2023-01-29T19:12:22.343Z,88.78
2023-01-29T19:15:24.005Z,88.36
2023-01-29T19:18:26.480Z,88.01
2023-01-29T19:21:28.461Z,86.46
2023-01-29T19:24:30.059Z,86.52
2023-01-29T19:27:31.671Z,85.21
2023-01-29T19:30:33.730Z,84.39
2023-01-29T19:33:35.789Z,83.47
2023-01-29T19:36:37.493Z,86.68
2023-01-29T19:39:39.088Z,87.53
2023-01-29T19:42:41.329Z,89.36
2023-01-29T19:45:49.467Z,88.80
2023-01-29T19:48:54.555Z,89.19
2023-01-29T19:51:58.814Z,89.00
2023-01-29T19:55:01.757Z,89.00
2023-01-29T19:58:04.716Z,88.34
2023-01-29T20:01:13.755Z,89.62
2023-01-29T20:04:15.416Z,89.56
2023-01-29T20:07:17.148Z,89.94
2023-01-29T20:10:19.148Z,90.18
2023-01-29T20:13:20.976Z,90.16
2023-01-29T20:16:22.810Z,90.25
2023-01-29T20:19:24.508Z,90.19
2023-01-29T20:22:26.823Z,88.95
2023-01-29T20:25:29.227Z,88.97
2023-01-29T20:28:30.841Z,89.77
2023-01-29T20:31:32.461Z,90.00
2023-01-29T20:34:34.501Z,88.88
2023-01-29T20:37:36.107Z,88.99
2023-01-29T20:40:37.793Z,89.67
2023-01-29T20:43:39.682Z,88.36
2023-01-29T20:46:42.465Z,86.96
2023-01-29T20:49:44.147Z,86.38
2023-01-29T20:52:46.022Z,88.43
2023-01-29T20:55:47.771Z,89.41
2023-01-29T20:58:49.577Z,88.80
2023-01-29T21:01:51.355Z,86.12
2023-01-29T21:04:53.035Z,87.11
2023-01-29T21:07:55.554Z,88.28
2023-01-29T21:10:57.222Z,89.78
2023-01-29T21:13:58.918Z,89.66
2023-01-29T21:17:01.260Z,90.43
2023-01-29T21:20:04.311Z,89.76
2023-01-29T21:23:07.180Z,90.10
2023-01-29T21:26:09.138Z,90.84
2023-01-29T21:29:12.138Z,91.61
2023-01-29T21:32:13.909Z,91.32
2023-01-29T21:35:15.809Z,90.09
2023-01-29T21:38:17.432Z,91.95
2023-01-29T21:41:19.012Z,91.80
2023-01-29T21:44:20.735Z,90.15
2023-01-29T21:47:22.421Z,90.16
2023-01-29T21:50:24.101Z,89.79
2023-01-29T21:53:25.964Z,90.55
2023-01-29T21:56:27.594Z,90.89
2023-01-29T21:59:29.355Z,91.09
2023-01-29T22:02:32.150Z,91.46
2023-01-29T22:05:34.403Z,92.64
2023-01-29T22:08:36.017Z,91.74
2023-01-29T22:11:37.755Z,92.02
2023-01-29T22:14:39.453Z,92.61
2023-01-29T22:17:41.683Z,93.10
2023-01-29T22:20:43.352Z,92.48
2023-01-29T22:23:49.381Z,92.75
2023-01-29T22:26:51.360Z,92.45
2023-01-29T22:29:52.946Z,93.07
2023-01-29T22:32:54.560Z,93.28
2023-01-29T22:35:56.797Z,93.40
2023-01-29T22:38:58.519Z,94.19
2023-01-29T22:42:00.244Z,94.37
2023-01-29T22:45:01.968Z,94.43
2023-01-29T22:48:03.758Z,93.39
2023-01-29T22:51:11.776Z,93.97
2023-01-29T22:54:15.463Z,93.82
2023-01-29T22:57:17.136Z,93.96
2023-01-29T23:00:19.731Z,94.34
2023-01-29T23:03:21.536Z,95.10
2023-01-29T23:06:23.469Z,95.37
2023-01-29T23:09:25.039Z,95.16
2023-01-29T23:12:26.693Z,95.93
2023-01-29T23:15:28.374Z,96.59
2023-01-29T23:18:29.936Z,97.01
2023-01-29T23:21:31.545Z,97.26
2023-01-29T23:24:33.239Z,96.24
2023-01-29T23:27:34.872Z,96.22
2023-01-29T23:30:36.503Z,95.64
2023-01-29T23:33:38.507Z,95.25
2023-01-29T23:36:40.139Z,94.73
2023-01-29T23:39:41.795Z,95.31
2023-01-29T23:42:43.393Z,94.14
2023-01-29T23:45:45.016Z,92.94
2023-01-29T23:48:46.666Z,91.84
2023-01-29T23:51:49.781Z,89.27
2023-01-29T23:54:51.396Z,89.10
2023-01-29T23:57:53.783Z,88.47
